createdAt,value
2018-11-07T00:01:14.860Z,18.30
2018-11-07T00:03:43.528Z,19.53
2018-11-07T00:06:12.436Z,18.27
2018-11-07T00:08:41.148Z,17.67
2018-11-07T00:11:09.864Z,17.48
2018-11-07T00:13:38.565Z,19.42
2018-11-07T00:16:07.357Z,21.50
2018-11-07T00:18:36.052Z,15.10
2018-11-07T00:21:05.255Z,17.63
2018-11-07T00:23:34.437Z,16.90
2018-11-07T00:26:03.152Z,17.10
2018-11-07T00:28:32.126Z,16.10
2018-11-07T00:31:00.996Z,19.07
2018-11-07T00:33:29.824Z,17.43
2018-11-07T00:35:58.534Z,17.33
2018-11-07T00:38:27.233Z,18.60
2018-11-07T00:40:56.193Z,14.80
2018-11-07T00:43:24.898Z,14.83
2018-11-07T00:45:53.629Z,14.63
2018-11-07T00:48:22.348Z,15.40
2018-11-07T00:50:51.048Z,17.00
2018-11-07T00:53:19.756Z,18.03
2018-11-07T00:56:10.867Z,15.27
2018-11-07T00:58:39.708Z,19.23
2018-11-07T01:01:27.976Z,17.07
2018-11-07T01:06:50.625Z,15.53
2018-11-07T01:09:19.379Z,16.15
2018-11-07T01:11:48.142Z,15.83
2018-11-07T01:14:16.844Z,16.00
2018-11-07T01:16:45.711Z,19.03
2018-11-07T01:19:14.371Z,17.07
2018-11-07T01:21:43.091Z,16.30
2018-11-07T01:24:11.986Z,16.52
2018-11-07T01:26:40.724Z,18.83
2018-11-07T01:29:09.516Z,19.77
2018-11-07T01:31:38.382Z,18.80
2018-11-07T01:34:07.359Z,17.27
2018-11-07T01:36:36.083Z,21.87
2018-11-07T01:39:07.142Z,21.07
2018-11-07T01:41:35.912Z,18.67
2018-11-07T01:44:05.059Z,17.10
2018-11-07T01:46:33.760Z,20.08
2018-11-07T01:49:02.563Z,18.07
2018-11-07T01:51:31.557Z,16.97
2018-11-07T01:54:00.272Z,21.80
2018-11-07T01:56:28.979Z,20.17
2018-11-07T01:58:58.208Z,19.93
2018-11-07T02:01:27.388Z,21.17
2018-11-07T02:03:56.208Z,19.83
2018-11-07T02:06:24.920Z,18.83
2018-11-07T02:08:53.636Z,23.30
2018-11-07T02:11:22.337Z,15.30
2018-11-07T02:13:51.042Z,20.33
2018-11-07T02:16:19.760Z,18.67
2018-11-07T02:18:48.484Z,17.00
2018-11-07T02:21:17.319Z,18.62
2018-11-07T02:23:46.300Z,16.97
2018-11-07T02:26:15.315Z,17.33
2018-11-07T02:28:44.284Z,18.47
2018-11-07T02:31:13.157Z,17.70
2018-11-07T02:33:41.864Z,16.57
2018-11-07T02:36:10.753Z,16.40
2018-11-07T02:38:39.409Z,17.90
2018-11-07T02:41:08.143Z,15.83
2018-11-07T02:43:37.032Z,13.60
2018-11-07T02:46:06.384Z,16.53
2018-11-07T02:48:55.257Z,16.60
2018-11-07T02:51:37.771Z,20.15
2018-11-07T02:54:06.516Z,15.47
2018-11-07T02:56:35.231Z,18.73
2018-11-07T02:59:04.883Z,16.37
2018-11-07T03:01:34.342Z,17.07
2018-11-07T03:04:03.060Z,14.70
2018-11-07T03:06:31.784Z,16.80
2018-11-07T03:09:00.519Z,15.40
2018-11-07T03:11:29.236Z,15.10
2018-11-07T03:13:57.943Z,15.70
2018-11-07T03:16:33.267Z,16.33
2018-11-07T03:19:02.000Z,17.80
2018-11-07T03:21:30.712Z,17.07
2018-11-07T03:23:59.443Z,17.10
2018-11-07T03:26:28.176Z,16.30
2018-11-07T03:28:56.908Z,17.75
2018-11-07T03:34:22.248Z,18.70
2018-11-07T03:36:51.270Z,16.90
2018-11-07T03:39:19.981Z,17.37
2018-11-07T03:41:48.704Z,15.77
2018-11-07T03:44:17.420Z,13.45
2018-11-07T03:46:46.185Z,17.87
2018-11-07T03:49:14.904Z,15.08
2018-11-07T03:51:43.612Z,15.78
2018-11-07T03:54:12.348Z,15.83
2018-11-07T03:56:41.062Z,15.10
2018-11-07T03:59:10.075Z,14.70
2018-11-07T04:01:38.808Z,17.17
2018-11-07T04:04:07.496Z,14.23
2018-11-07T04:06:36.222Z,15.33
2018-11-07T04:09:08.500Z,16.50
2018-11-07T04:11:37.347Z,16.00
2018-11-07T04:14:06.088Z,13.43
2018-11-07T04:16:34.852Z,13.07
2018-11-07T04:19:03.571Z,15.13
2018-11-07T04:21:32.533Z,16.43
2018-11-07T04:24:02.528Z,16.77
2018-11-07T04:26:32.640Z,21.80
2018-11-07T04:29:01.667Z,20.03
2018-11-07T04:31:30.924Z,17.40
2018-11-07T04:33:59.852Z,16.77
2018-11-07T04:36:28.594Z,16.43
2018-11-07T04:38:57.318Z,15.03
2018-11-07T04:41:26.012Z,16.50
2018-11-07T04:43:54.700Z,15.93
2018-11-07T04:46:23.439Z,18.80
2018-11-07T04:48:52.400Z,18.07
2018-11-07T04:51:21.130Z,18.35
2018-11-07T04:53:49.865Z,18.27
2018-11-07T04:56:18.588Z,19.10
2018-11-07T04:58:47.284Z,16.47
2018-11-07T05:01:16.092Z,17.20
2018-11-07T05:03:44.829Z,14.77
2018-11-07T05:06:13.545Z,16.70
2018-11-07T05:08:42.507Z,16.03
2018-11-07T05:11:11.320Z,14.78
2018-11-07T05:16:33.365Z,16.67
2018-11-07T05:19:02.367Z,15.37
2018-11-07T05:21:31.376Z,17.87
2018-11-07T05:24:00.169Z,20.83
2018-11-07T05:26:28.850Z,19.77
2018-11-07T05:28:57.915Z,19.20
2018-11-07T05:31:26.872Z,19.50
2018-11-07T05:33:55.897Z,18.70
2018-11-07T05:36:24.613Z,18.37
2018-11-07T05:38:53.339Z,20.83
2018-11-07T05:41:22.079Z,8.13
2018-11-07T05:43:51.092Z,17.37
2018-11-07T05:46:19.827Z,14.93
2018-11-07T05:48:48.591Z,15.57
2018-11-07T05:51:17.427Z,18.67
2018-11-07T05:53:46.316Z,18.00
2018-11-07T05:56:15.030Z,16.45
2018-11-07T05:58:43.977Z,16.82
2018-11-07T06:01:12.767Z,17.80
2018-11-07T06:03:41.488Z,16.73
2018-11-07T06:06:10.204Z,17.75
2018-11-07T06:08:38.913Z,17.90
2018-11-07T06:11:08.764Z,16.57
2018-11-07T06:13:37.477Z,15.83
2018-11-07T06:16:07.047Z,16.63
2018-11-07T06:18:35.755Z,17.13
2018-11-07T06:21:05.295Z,15.63
2018-11-07T06:23:34.036Z,14.90
2018-11-07T06:26:02.773Z,18.10
2018-11-07T06:28:31.485Z,17.63
2018-11-07T06:31:00.194Z,17.83
2018-11-07T06:33:29.232Z,14.87
2018-11-07T06:35:57.971Z,15.80
2018-11-07T06:38:26.668Z,16.30
2018-11-07T06:40:55.369Z,18.80
2018-11-07T06:43:24.082Z,13.43
2018-11-07T06:45:52.792Z,14.57
2018-11-07T06:48:21.524Z,13.83
2018-11-07T06:50:50.235Z,15.40
2018-11-07T06:53:18.966Z,13.45
2018-11-07T06:55:47.866Z,15.90
2018-11-07T06:58:16.866Z,13.50
2018-11-07T07:00:45.724Z,14.23
2018-11-07T07:03:14.438Z,13.60
2018-11-07T07:05:43.143Z,14.70
2018-11-07T07:08:11.858Z,13.63
2018-11-07T07:10:40.775Z,13.73
2018-11-07T07:13:09.691Z,13.23
2018-11-07T07:15:38.375Z,10.65
2018-11-07T07:18:07.150Z,12.90
2018-11-07T07:20:35.804Z,11.93
2018-11-07T07:23:04.928Z,11.77
2018-11-07T07:25:33.666Z,9.97
2018-11-07T07:28:02.350Z,10.80
2018-11-07T07:30:31.111Z,11.50
2018-11-07T07:32:59.908Z,10.87
2018-11-07T07:35:28.570Z,11.73
2018-11-07T07:37:57.370Z,11.70
2018-11-07T07:40:26.080Z,10.07
2018-11-07T07:43:06.057Z,10.03
2018-11-07T07:45:34.805Z,11.20
2018-11-07T07:48:03.496Z,10.03
2018-11-07T07:50:32.195Z,10.97
2018-11-07T07:53:00.958Z,10.80
2018-11-07T07:55:29.628Z,9.63
2018-11-07T07:57:58.331Z,9.40
2018-11-07T08:00:27.069Z,14.23
2018-11-07T08:02:55.873Z,10.17
2018-11-07T08:05:24.578Z,11.10
2018-11-07T08:07:53.424Z,10.97
2018-11-07T08:10:22.646Z,9.83
2018-11-07T08:12:51.711Z,10.20
2018-11-07T08:15:20.560Z,10.57
2018-11-07T08:17:49.253Z,8.87
2018-11-07T08:20:18.791Z,12.57
2018-11-07T08:22:48.222Z,10.70
2018-11-07T08:25:17.153Z,9.37
2018-11-07T08:27:45.841Z,9.17
2018-11-07T08:30:15.756Z,9.37
2018-11-07T08:32:44.480Z,7.30
2018-11-07T08:35:13.990Z,8.95
2018-11-07T08:37:44.208Z,9.93
2018-11-07T08:40:16.248Z,9.27
2018-11-07T08:42:44.986Z,7.83
2018-11-07T08:45:14.032Z,9.83
2018-11-07T08:47:43.384Z,8.87
2018-11-07T08:50:14.252Z,7.92
2018-11-07T08:52:43.873Z,8.13
2018-11-07T08:55:14.182Z,9.73
2018-11-07T08:57:42.718Z,8.63
2018-11-07T09:00:13.537Z,7.87
2018-11-07T09:02:43.130Z,7.60
2018-11-07T09:05:12.526Z,7.20
2018-11-07T09:07:42.013Z,7.33
2018-11-07T09:10:12.086Z,6.90
2018-11-07T09:12:41.038Z,6.90
2018-11-07T09:15:12.886Z,7.50
2018-11-07T09:17:41.932Z,6.80
2018-11-07T09:20:13.872Z,8.00
2018-11-07T09:22:53.044Z,5.80
2018-11-07T09:25:21.763Z,6.57
2018-11-07T09:27:50.472Z,7.97
2018-11-07T09:30:20.572Z,7.60
2018-11-07T09:32:49.348Z,6.10
2018-11-07T09:35:18.445Z,5.90
2018-11-07T09:37:47.161Z,8.07
2018-11-07T09:40:17.992Z,6.70
2018-11-07T09:42:47.388Z,6.13
2018-11-07T09:45:17.400Z,5.65
2018-11-07T09:47:46.589Z,5.60
2018-11-07T09:50:16.209Z,6.53
2018-11-07T09:52:45.336Z,5.87
2018-11-07T09:55:15.304Z,6.20
2018-11-07T09:57:57.137Z,6.17
2018-11-07T10:00:25.822Z,6.07
2018-11-07T10:02:54.548Z,5.80
2018-11-07T10:05:23.270Z,5.10
2018-11-07T10:07:52.000Z,5.70
2018-11-07T10:10:21.753Z,4.87
2018-11-07T10:12:50.649Z,7.07
2018-11-07T10:15:19.770Z,5.37
2018-11-07T10:17:48.496Z,7.10
2018-11-07T10:20:19.473Z,6.95
2018-11-07T10:22:48.697Z,5.17
2018-11-07T10:25:17.659Z,5.00
2018-11-07T10:27:47.159Z,5.37
2018-11-07T10:30:16.930Z,4.97
2018-11-07T10:32:47.007Z,4.60
2018-11-07T10:35:15.781Z,4.83
2018-11-07T10:37:44.732Z,5.10
2018-11-07T10:40:15.353Z,5.90
2018-11-07T10:42:44.458Z,4.80
2018-11-07T10:45:13.288Z,5.73
2018-11-07T10:47:43.155Z,5.53
2018-11-07T10:50:12.803Z,5.40
2018-11-07T10:52:42.384Z,3.63
2018-11-07T10:55:12.240Z,6.70
2018-11-07T10:57:41.121Z,4.23
2018-11-07T11:00:16.477Z,3.67
2018-11-07T11:02:47.502Z,3.97
2018-11-07T11:05:17.692Z,4.50
2018-11-07T11:07:46.368Z,4.10
2018-11-07T11:10:15.280Z,6.15
2018-11-07T11:12:44.891Z,4.77
2018-11-07T11:15:13.596Z,4.57
2018-11-07T11:17:42.303Z,3.77
2018-11-07T11:20:12.479Z,4.25
2018-11-07T11:22:41.446Z,4.83
2018-11-07T11:25:10.594Z,6.37
2018-11-07T11:27:39.641Z,3.60
2018-11-07T11:30:09.077Z,3.10
2018-11-07T11:32:38.004Z,3.20
2018-11-07T11:35:07.608Z,2.93
2018-11-07T11:37:36.238Z,3.00
2018-11-07T11:40:06.099Z,2.60
2018-11-07T11:42:35.647Z,4.30
2018-11-07T11:45:05.488Z,2.87
2018-11-07T11:47:34.194Z,4.53
2018-11-07T11:50:03.060Z,4.60
2018-11-07T11:52:31.992Z,2.53
2018-11-07T11:55:00.709Z,2.30
2018-11-07T11:57:29.433Z,2.00
2018-11-07T12:02:54.689Z,3.47
2018-11-07T12:05:23.412Z,1.70
2018-11-07T12:07:52.114Z,1.87
2018-11-07T12:10:23.481Z,4.63
2018-11-07T12:12:55.431Z,2.27
2018-11-07T12:18:20.652Z,2.20
2018-11-07T12:20:49.620Z,1.73
2018-11-07T12:23:18.328Z,2.90
2018-11-07T12:25:47.035Z,2.65
2018-11-07T12:28:15.740Z,3.57
2018-11-07T12:30:44.715Z,2.47
2018-11-07T12:33:13.413Z,3.90
2018-11-07T12:35:42.118Z,2.37
2018-11-07T12:38:10.833Z,4.60
2018-11-07T12:40:39.824Z,2.07
2018-11-07T12:43:08.548Z,2.43
2018-11-07T12:48:37.659Z,2.00
2018-11-07T12:51:28.192Z,2.20
2018-11-07T12:54:08.464Z,2.53
2018-11-07T12:56:58.596Z,2.90
2018-11-07T12:59:40.503Z,2.57
2018-11-07T13:02:15.901Z,1.80
2018-11-07T13:04:44.947Z,3.10
2018-11-07T13:07:13.608Z,2.72
2018-11-07T13:09:42.313Z,2.50
2018-11-07T13:15:06.428Z,1.90
2018-11-07T13:17:35.384Z,2.23
2018-11-07T13:20:07.265Z,4.85
2018-11-07T13:22:36.126Z,2.25
2018-11-07T13:25:05.480Z,2.37
2018-11-07T13:27:34.229Z,2.33
2018-11-07T13:30:02.949Z,2.00
2018-11-07T13:32:31.669Z,2.67
2018-11-07T13:35:00.425Z,2.00
2018-11-07T13:37:29.358Z,2.00
2018-11-07T13:39:57.836Z,2.10
2018-11-07T13:42:26.557Z,2.03
2018-11-07T13:44:55.511Z,2.57
2018-11-07T13:47:24.219Z,2.20
2018-11-07T13:49:52.912Z,3.20
2018-11-07T13:52:21.653Z,2.20
2018-11-07T13:54:50.372Z,2.83
2018-11-07T13:57:19.106Z,2.27
2018-11-07T13:59:47.805Z,2.20
2018-11-07T14:02:16.528Z,1.80
2018-11-07T14:04:45.463Z,1.93
2018-11-07T14:07:14.321Z,2.57
2018-11-07T14:09:43.047Z,3.57
2018-11-07T14:12:12.020Z,2.45
2018-11-07T14:14:40.732Z,3.13
2018-11-07T14:17:09.467Z,1.90
2018-11-07T14:19:38.433Z,1.80
2018-11-07T14:22:07.312Z,2.23
2018-11-07T14:24:36.039Z,2.10
2018-11-07T14:27:04.777Z,2.43
2018-11-07T14:29:33.494Z,5.93
2018-11-07T14:32:02.363Z,2.83
2018-11-07T14:34:31.056Z,3.47
2018-11-07T14:36:59.812Z,1.60
2018-11-07T14:39:28.722Z,2.23
2018-11-07T14:41:57.407Z,1.63
2018-11-07T14:44:26.117Z,3.37
2018-11-07T14:46:54.876Z,4.57
2018-11-07T14:49:23.520Z,1.90
2018-11-07T14:51:52.227Z,2.97
2018-11-07T14:54:21.204Z,3.72
2018-11-07T14:56:49.869Z,2.23
2018-11-07T14:59:18.580Z,3.95
2018-11-07T15:01:47.292Z,2.90
2018-11-07T15:04:16.205Z,3.63
2018-11-07T15:06:44.914Z,2.83
2018-11-07T15:09:13.661Z,2.10
2018-11-07T15:11:43.425Z,2.33
2018-11-07T15:14:12.305Z,3.77
2018-11-07T15:16:41.009Z,2.27
2018-11-07T15:19:09.781Z,2.80
2018-11-07T15:21:38.480Z,3.60
2018-11-07T15:24:07.188Z,2.97
2018-11-07T15:26:35.893Z,2.23
2018-11-07T15:29:04.995Z,4.07
2018-11-07T15:31:33.943Z,2.53
2018-11-07T15:34:02.681Z,2.30
2018-11-07T15:36:31.422Z,4.27
2018-11-07T15:39:00.240Z,2.27
2018-11-07T15:41:28.972Z,3.17
2018-11-07T15:43:57.677Z,4.37
2018-11-07T15:46:26.395Z,3.03
2018-11-07T15:48:55.105Z,2.77
2018-11-07T15:51:29.326Z,3.77
2018-11-07T15:53:58.029Z,4.33
2018-11-07T15:56:26.720Z,3.23
2018-11-07T15:58:55.444Z,2.77
2018-11-07T16:01:24.151Z,2.00
2018-11-07T16:03:56.313Z,2.10
2018-11-07T16:06:25.581Z,2.10
2018-11-07T16:08:58.936Z,4.67
2018-11-07T16:11:29.092Z,2.80
2018-11-07T16:13:57.800Z,1.77
2018-11-07T16:16:27.404Z,3.00
2018-11-07T16:18:56.396Z,2.30
2018-11-07T16:21:25.193Z,2.00
2018-11-07T16:23:54.338Z,2.43
2018-11-07T16:26:23.052Z,3.13
2018-11-07T16:28:51.800Z,2.47
2018-11-07T16:31:20.797Z,3.85
2018-11-07T16:36:47.641Z,2.57
2018-11-07T16:39:16.621Z,4.33
2018-11-07T16:41:45.775Z,2.90
2018-11-07T16:44:20.163Z,3.20
2018-11-07T16:46:49.821Z,3.23
2018-11-07T16:49:18.488Z,3.05
2018-11-07T16:51:47.399Z,2.73
2018-11-07T16:54:17.593Z,2.10
2018-11-07T16:56:46.382Z,3.83
2018-11-07T16:59:15.456Z,2.80
2018-11-07T17:01:44.063Z,3.97
2018-11-07T17:04:12.971Z,5.47
2018-11-07T17:06:41.776Z,5.00
2018-11-07T17:09:11.924Z,2.87
2018-11-07T17:11:41.380Z,2.63
2018-11-07T17:14:10.264Z,6.00
2018-11-07T17:16:39.179Z,4.03
2018-11-07T17:19:07.919Z,4.07
2018-11-07T17:21:36.868Z,3.80
2018-11-07T17:24:06.006Z,6.73
2018-11-07T17:26:34.741Z,5.23
2018-11-07T17:29:03.400Z,3.40
2018-11-07T17:31:32.204Z,2.97
2018-11-07T17:34:00.828Z,4.00
2018-11-07T17:36:29.564Z,3.47
2018-11-07T17:38:58.584Z,3.40
2018-11-07T17:41:27.276Z,3.03
2018-11-07T17:43:55.993Z,4.03
2018-11-07T17:46:24.908Z,5.93
2018-11-07T17:48:53.621Z,8.33
2018-11-07T17:51:22.608Z,4.87
2018-11-07T17:53:51.357Z,4.47
2018-11-07T17:56:20.095Z,4.93
2018-11-07T17:58:49.000Z,4.03
2018-11-07T18:01:17.956Z,4.35
2018-11-07T18:03:47.056Z,3.70
2018-11-07T18:06:15.952Z,4.05
2018-11-07T18:08:44.669Z,3.12
2018-11-07T18:11:30.626Z,3.60
2018-11-07T18:14:19.607Z,4.87
2018-11-07T18:16:48.526Z,4.40
2018-11-07T18:19:17.207Z,4.20
2018-11-07T18:24:42.541Z,4.20
2018-11-07T18:27:11.321Z,4.73
2018-11-07T18:29:40.002Z,4.60
2018-11-07T18:38:12.581Z,3.90
2018-11-07T18:40:41.572Z,4.27
2018-11-07T18:43:13.581Z,4.67
2018-11-07T18:45:43.467Z,3.37
2018-11-07T18:48:12.382Z,3.52
2018-11-07T18:50:41.142Z,3.55
2018-11-07T18:53:09.806Z,3.37
2018-11-07T18:55:38.631Z,5.50
2018-11-07T18:58:07.635Z,7.37
2018-11-07T19:00:37.196Z,4.37
2018-11-07T19:03:07.428Z,4.73
2018-11-07T19:05:36.396Z,4.77
2018-11-07T19:08:05.399Z,3.95
2018-11-07T19:10:34.105Z,4.67
2018-11-07T19:13:03.080Z,6.33
2018-11-07T19:15:31.798Z,4.77
2018-11-07T19:18:00.760Z,5.57
2018-11-07T19:20:29.527Z,4.87
2018-11-07T19:22:58.212Z,5.50
2018-11-07T19:25:26.957Z,4.40
2018-11-07T19:27:55.680Z,3.93
2018-11-07T19:36:11.980Z,4.40
2018-11-07T19:38:45.824Z,4.60
2018-11-07T19:41:15.147Z,3.93
2018-11-07T19:43:44.040Z,5.03
2018-11-07T19:46:12.752Z,3.65
2018-11-07T19:48:41.477Z,4.67
2018-11-07T19:51:10.230Z,4.23
2018-11-07T19:53:39.284Z,4.57
2018-11-07T19:56:08.199Z,3.73
2018-11-07T19:58:37.359Z,3.63
2018-11-07T20:01:06.241Z,6.73
2018-11-07T20:03:34.935Z,4.10
2018-11-07T20:06:03.637Z,4.80
2018-11-07T20:08:32.352Z,4.20
2018-11-07T20:11:01.227Z,6.30
2018-11-07T20:13:30.199Z,5.53
2018-11-07T20:15:59.209Z,6.93
2018-11-07T20:18:27.913Z,5.27
2018-11-07T20:20:56.632Z,4.57
2018-11-07T20:23:25.472Z,4.87
2018-11-07T20:25:54.072Z,4.87
2018-11-07T20:28:22.990Z,3.87
2018-11-07T20:30:51.697Z,5.00
2018-11-07T20:33:20.601Z,5.25
2018-11-07T20:35:49.885Z,3.90
2018-11-07T20:38:19.126Z,3.67
2018-11-07T20:40:47.824Z,3.60
2018-11-07T20:43:16.545Z,4.93
2018-11-07T20:45:45.285Z,4.33
2018-11-07T20:48:14.288Z,3.25
2018-11-07T20:50:43.025Z,3.50
2018-11-07T20:53:11.925Z,3.97
2018-11-07T20:55:40.692Z,3.10
2018-11-07T20:58:09.600Z,3.00
2018-11-07T21:00:38.593Z,3.87
2018-11-07T21:03:07.960Z,3.20
2018-11-07T21:05:36.872Z,2.83
2018-11-07T21:08:05.883Z,4.37
2018-11-07T21:10:34.882Z,5.27
2018-11-07T21:13:03.857Z,4.37
2018-11-07T21:15:32.870Z,5.70
2018-11-07T21:18:01.838Z,4.40
2018-11-07T21:20:30.543Z,3.60
2018-11-07T21:22:59.256Z,3.77
2018-11-07T21:25:27.976Z,3.60
2018-11-07T21:27:56.884Z,4.07
2018-11-07T21:30:25.615Z,4.70
2018-11-07T21:32:54.565Z,4.20
2018-11-07T21:35:23.267Z,5.43
2018-11-07T21:37:51.980Z,7.20
2018-11-07T21:40:21.162Z,6.17
2018-11-07T21:42:49.988Z,8.90
2018-11-07T21:45:18.728Z,7.20
2018-11-07T21:47:47.631Z,8.87
2018-11-07T21:50:17.074Z,5.90
2018-11-07T21:52:45.761Z,4.03
2018-11-07T21:55:14.721Z,5.10
2018-11-07T21:57:43.464Z,4.37
2018-11-07T22:00:14.369Z,4.75
2018-11-07T22:02:43.621Z,6.57
2018-11-07T22:05:12.918Z,5.67
2018-11-07T22:07:41.694Z,7.00
2018-11-07T22:10:11.580Z,8.78
2018-11-07T22:12:40.287Z,6.10
2018-11-07T22:15:09.717Z,3.75
2018-11-07T22:17:38.595Z,4.20
2018-11-07T22:20:11.304Z,4.47
2018-11-07T22:22:40.873Z,3.80
2018-11-07T22:25:09.624Z,4.23
2018-11-07T22:27:38.328Z,4.63
2018-11-07T22:30:08.827Z,4.77
2018-11-07T22:32:37.815Z,5.27
2018-11-07T22:35:07.133Z,4.13
2018-11-07T22:37:36.796Z,3.63
2018-11-07T22:40:07.601Z,4.50
2018-11-07T22:42:36.941Z,4.40
2018-11-07T22:45:05.775Z,4.60
2018-11-07T22:47:34.643Z,6.13
2018-11-07T22:50:03.645Z,6.43
2018-11-07T22:52:32.456Z,4.77
2018-11-07T22:55:01.195Z,4.53
2018-11-07T22:57:30.051Z,5.42
2018-11-07T22:59:59.004Z,5.57
2018-11-07T23:02:27.728Z,4.53
2018-11-07T23:04:56.687Z,4.63
2018-11-07T23:07:25.635Z,5.03
2018-11-07T23:09:54.346Z,3.63
2018-11-07T23:12:23.050Z,4.47
2018-11-07T23:14:51.864Z,4.13
2018-11-07T23:17:20.684Z,3.93
2018-11-07T23:19:49.408Z,3.60
2018-11-07T23:22:18.123Z,4.00
2018-11-07T23:24:46.821Z,3.57
2018-11-07T23:27:15.525Z,4.75
2018-11-07T23:29:44.416Z,3.60
2018-11-07T23:32:14.926Z,3.90
2018-11-07T23:34:43.629Z,4.37
2018-11-07T23:37:12.351Z,3.67
2018-11-07T23:39:41.297Z,4.37
2018-11-07T23:42:10.017Z,4.23
2018-11-07T23:44:38.715Z,3.80
2018-11-07T23:47:07.444Z,4.33
2018-11-07T23:49:36.361Z,4.50
2018-11-07T23:52:05.824Z,4.00
2018-11-07T23:54:34.536Z,3.40
2018-11-07T23:57:03.256Z,4.17
2018-11-07T23:59:31.983Z,4.13
